sensor_id;sensor_type;location;lat;lon;timestamp;P1;durP1;ratioP1;P2;durP2;ratioP2
64094;SDS011;50353;51.420;5.682;2023-11-22T00:00:39;13.07;;;6.75;;
64094;SDS011;50353;51.420;5.682;2023-11-22T00:03:04;12.63;;;6.88;;
64094;SDS011;50353;51.420;5.682;2023-11-22T00:05:30;15.02;;;6.95;;
64094;SDS011;50353;51.420;5.682;2023-11-22T00:07:55;12.65;;;6.45;;
64094;SDS011;50353;51.420;5.682;2023-11-22T00:10:22;13.80;;;6.55;;
64094;SDS011;50353;51.420;5.682;2023-11-22T00:12:47;13.52;;;7.15;;
64094;SDS011;50353;51.420;5.682;2023-11-22T00:15:12;19.20;;;7.13;;
64094;SDS011;50353;51.420;5.682;2023-11-22T00:17:43;17.20;;;8.02;;
64094;SDS011;50353;51.420;5.682;2023-11-22T00:20:08;15.55;;;7.80;;
64094;SDS011;50353;51.420;5.682;2023-11-22T00:22:34;15.63;;;7.40;;
64094;SDS011;50353;51.420;5.682;2023-11-22T00:25:02;15.95;;;7.40;;
64094;SDS011;50353;51.420;5.682;2023-11-22T00:27:28;15.45;;;7.63;;
64094;SDS011;50353;51.420;5.682;2023-11-22T00:29:57;16.10;;;7.72;;
64094;SDS011;50353;51.420;5.682;2023-11-22T00:32:23;15.57;;;7.35;;
64094;SDS011;50353;51.420;5.682;2023-11-22T00:34:50;14.45;;;7.90;;
64094;SDS011;50353;51.420;5.682;2023-11-22T00:37:16;17.65;;;8.15;;
64094;SDS011;50353;51.420;5.682;2023-11-22T00:39:41;15.53;;;7.33;;
64094;SDS011;50353;51.420;5.682;2023-11-22T00:42:07;13.15;;;7.00;;
64094;SDS011;50353;51.420;5.682;2023-11-22T00:44:32;14.23;;;6.95;;
64094;SDS011;50353;51.420;5.682;2023-11-22T00:46:58;13.30;;;7.20;;
64094;SDS011;50353;51.420;5.682;2023-11-22T00:49:23;13.75;;;7.20;;
64094;SDS011;50353;51.420;5.682;2023-11-22T00:51:49;12.23;;;7.13;;
64094;SDS011;50353;51.420;5.682;2023-11-22T00:54:15;13.32;;;7.70;;
64094;SDS011;50353;51.420;5.682;2023-11-22T00:56:40;13.20;;;7.10;;
64094;SDS011;50353;51.420;5.682;2023-11-22T00:59:06;15.30;;;8.50;;
64094;SDS011;50353;51.420;5.682;2023-11-22T01:01:31;12.85;;;7.40;;
64094;SDS011;50353;51.420;5.682;2023-11-22T01:03:57;12.88;;;7.47;;
64094;SDS011;50353;51.420;5.682;2023-11-22T01:06:22;14.27;;;6.80;;
64094;SDS011;50353;51.420;5.682;2023-11-22T01:08:48;12.82;;;7.15;;
64094;SDS011;50353;51.420;5.682;2023-11-22T01:11:13;14.38;;;7.95;;
64094;SDS011;50353;51.420;5.682;2023-11-22T01:13:39;15.45;;;7.72;;
64094;SDS011;50353;51.420;5.682;2023-11-22T01:16:08;16.15;;;8.20;;
64094;SDS011;50353;51.420;5.682;2023-11-22T01:18:34;12.63;;;7.28;;
64094;SDS011;50353;51.420;5.682;2023-11-22T01:21:00;12.65;;;6.72;;
64094;SDS011;50353;51.420;5.682;2023-11-22T01:23:26;12.93;;;6.65;;
64094;SDS011;50353;51.420;5.682;2023-11-22T01:25:52;13.23;;;7.13;;
64094;SDS011;50353;51.420;5.682;2023-11-22T01:28:18;12.50;;;6.82;;
64094;SDS011;50353;51.420;5.682;2023-11-22T01:30:43;13.05;;;7.22;;
64094;SDS011;50353;51.420;5.682;2023-11-22T01:33:12;11.90;;;6.35;;
64094;SDS011;50353;51.420;5.682;2023-11-22T01:35:37;11.38;;;6.28;;
64094;SDS011;50353;51.420;5.682;2023-11-22T01:38:05;11.35;;;6.55;;
64094;SDS011;50353;51.420;5.682;2023-11-22T01:40:31;15.30;;;7.43;;
64094;SDS011;50353;51.420;5.682;2023-11-22T01:42:57;15.05;;;7.65;;
64094;SDS011;50353;51.420;5.682;2023-11-22T01:45:22;15.57;;;6.68;;
64094;SDS011;50353;51.420;5.682;2023-11-22T01:47:48;14.60;;;7.23;;
64094;SDS011;50353;51.420;5.682;2023-11-22T01:50:13;14.35;;;7.55;;
64094;SDS011;50353;51.420;5.682;2023-11-22T01:52:39;15.77;;;7.03;;
64094;SDS011;50353;51.420;5.682;2023-11-22T01:55:06;14.10;;;6.93;;
64094;SDS011;50353;51.420;5.682;2023-11-22T01:57:33;11.63;;;6.20;;
64094;SDS011;50353;51.420;5.682;2023-11-22T02:00:02;12.05;;;5.97;;
64094;SDS011;50353;51.420;5.682;2023-11-22T02:02:31;10.80;;;6.05;;
64094;SDS011;50353;51.420;5.682;2023-11-22T02:05:00;12.50;;;6.03;;
64094;SDS011;50353;51.420;5.682;2023-11-22T02:07:29;10.77;;;5.83;;
64094;SDS011;50353;51.420;5.682;2023-11-22T02:09:56;12.98;;;6.68;;
64094;SDS011;50353;51.420;5.682;2023-11-22T02:12:22;9.55;;;5.32;;
64094;SDS011;50353;51.420;5.682;2023-11-22T02:14:48;12.50;;;6.93;;
64094;SDS011;50353;51.420;5.682;2023-11-22T02:17:14;9.35;;;5.65;;
64094;SDS011;50353;51.420;5.682;2023-11-22T02:19:41;11.75;;;5.90;;
64094;SDS011;50353;51.420;5.682;2023-11-22T02:22:07;10.98;;;6.00;;
64094;SDS011;50353;51.420;5.682;2023-11-22T02:24:33;14.20;;;6.10;;
64094;SDS011;50353;51.420;5.682;2023-11-22T02:26:59;12.00;;;5.93;;
64094;SDS011;50353;51.420;5.682;2023-11-22T02:29:25;13.25;;;6.28;;
64094;SDS011;50353;51.420;5.682;2023-11-22T02:31:50;11.13;;;6.28;;
64094;SDS011;50353;51.420;5.682;2023-11-22T02:34:15;11.65;;;5.88;;
64094;SDS011;50353;51.420;5.682;2023-11-22T02:36:44;13.63;;;6.63;;
64094;SDS011;50353;51.420;5.682;2023-11-22T02:39:09;11.25;;;6.05;;
64094;SDS011;50353;51.420;5.682;2023-11-22T02:41:34;10.25;;;5.65;;
64094;SDS011;50353;51.420;5.682;2023-11-22T02:44:00;9.68;;;5.75;;
64094;SDS011;50353;51.420;5.682;2023-11-22T02:46:26;10.77;;;5.65;;
64094;SDS011;50353;51.420;5.682;2023-11-22T02:48:51;9.40;;;4.97;;
64094;SDS011;50353;51.420;5.682;2023-11-22T02:51:19;11.13;;;5.63;;
64094;SDS011;50353;51.420;5.682;2023-11-22T02:53:44;8.88;;;5.88;;
64094;SDS011;50353;51.420;5.682;2023-11-22T02:56:11;9.50;;;4.85;;
64094;SDS011;50353;51.420;5.682;2023-11-22T02:58:36;10.13;;;5.30;;
64094;SDS011;50353;51.420;5.682;2023-11-22T03:01:01;9.70;;;5.87;;
64094;SDS011;50353;51.420;5.682;2023-11-22T03:03:27;12.13;;;5.97;;
64094;SDS011;50353;51.420;5.682;2023-11-22T03:05:53;9.25;;;5.80;;
64094;SDS011;50353;51.420;5.682;2023-11-22T03:08:19;11.68;;;6.13;;
64094;SDS011;50353;51.420;5.682;2023-11-22T03:10:44;9.68;;;5.60;;
64094;SDS011;50353;51.420;5.682;2023-11-22T03:13:09;12.18;;;5.93;;
64094;SDS011;50353;51.420;5.682;2023-11-22T03:15:35;11.40;;;5.80;;
64094;SDS011;50353;51.420;5.682;2023-11-22T03:18:01;8.40;;;4.93;;
64094;SDS011;50353;51.420;5.682;2023-11-22T03:20:26;8.95;;;4.32;;
64094;SDS011;50353;51.420;5.682;2023-11-22T03:22:52;12.00;;;6.00;;
64094;SDS011;50353;51.420;5.682;2023-11-22T03:25:17;10.80;;;5.80;;
64094;SDS011;50353;51.420;5.682;2023-11-22T03:27:43;9.68;;;5.50;;
64094;SDS011;50353;51.420;5.682;2023-11-22T03:30:09;9.85;;;5.18;;
64094;SDS011;50353;51.420;5.682;2023-11-22T03:32:37;12.00;;;5.82;;
64094;SDS011;50353;51.420;5.682;2023-11-22T03:35:04;15.23;;;6.32;;
64094;SDS011;50353;51.420;5.682;2023-11-22T03:37:31;9.85;;;5.75;;
64094;SDS011;50353;51.420;5.682;2023-11-22T03:39:57;12.20;;;6.10;;
64094;SDS011;50353;51.420;5.682;2023-11-22T03:42:22;10.25;;;5.80;;
64094;SDS011;50353;51.420;5.682;2023-11-22T03:44:48;13.50;;;6.47;;
64094;SDS011;50353;51.420;5.682;2023-11-22T03:47:13;11.57;;;6.75;;
64094;SDS011;50353;51.420;5.682;2023-11-22T03:49:40;11.73;;;6.10;;
64094;SDS011;50353;51.420;5.682;2023-11-22T03:52:06;12.50;;;5.88;;
64094;SDS011;50353;51.420;5.682;2023-11-22T03:54:33;11.13;;;6.80;;
64094;SDS011;50353;51.420;5.682;2023-11-22T03:56:58;13.00;;;6.15;;
64094;SDS011;50353;51.420;5.682;2023-11-22T03:59:23;10.32;;;5.68;;
64094;SDS011;50353;51.420;5.682;2023-11-22T04:01:49;14.77;;;6.75;;
64094;SDS011;50353;51.420;5.682;2023-11-22T04:04:14;12.65;;;6.18;;
64094;SDS011;50353;51.420;5.682;2023-11-22T04:06:40;15.05;;;7.50;;
64094;SDS011;50353;51.420;5.682;2023-11-22T04:09:05;17.58;;;7.32;;
64094;SDS011;50353;51.420;5.682;2023-11-22T04:11:30;14.70;;;7.68;;
64094;SDS011;50353;51.420;5.682;2023-11-22T04:13:56;13.75;;;7.78;;
64094;SDS011;50353;51.420;5.682;2023-11-22T04:16:21;17.10;;;7.87;;
64094;SDS011;50353;51.420;5.682;2023-11-22T04:18:46;20.35;;;7.68;;
64094;SDS011;50353;51.420;5.682;2023-11-22T04:21:12;25.23;;;8.93;;
64094;SDS011;50353;51.420;5.682;2023-11-22T04:23:37;34.33;;;9.82;;
64094;SDS011;50353;51.420;5.682;2023-11-22T04:26:03;36.00;;;9.25;;
64094;SDS011;50353;51.420;5.682;2023-11-22T04:28:28;23.45;;;8.32;;
64094;SDS011;50353;51.420;5.682;2023-11-22T04:30:57;30.63;;;10.43;;
64094;SDS011;50353;51.420;5.682;2023-11-22T04:33:23;17.77;;;8.98;;
64094;SDS011;50353;51.420;5.682;2023-11-22T04:35:48;37.08;;;9.70;;
64094;SDS011;50353;51.420;5.682;2023-11-22T04:38:14;46.83;;;9.35;;
64094;SDS011;50353;51.420;5.682;2023-11-22T04:40:39;29.00;;;8.70;;
64094;SDS011;50353;51.420;5.682;2023-11-22T04:43:05;48.95;;;9.88;;
64094;SDS011;50353;51.420;5.682;2023-11-22T04:45:30;31.73;;;8.30;;
64094;SDS011;50353;51.420;5.682;2023-11-22T04:47:55;49.23;;;9.50;;
64094;SDS011;50353;51.420;5.682;2023-11-22T04:50:23;32.10;;;8.95;;
64094;SDS011;50353;51.420;5.682;2023-11-22T04:52:49;28.60;;;9.55;;
64094;SDS011;50353;51.420;5.682;2023-11-22T04:55:16;29.13;;;9.13;;
64094;SDS011;50353;51.420;5.682;2023-11-22T04:57:41;21.80;;;8.45;;
64094;SDS011;50353;51.420;5.682;2023-11-22T05:00:07;25.27;;;8.57;;
64094;SDS011;50353;51.420;5.682;2023-11-22T05:02:33;27.58;;;8.75;;
64094;SDS011;50353;51.420;5.682;2023-11-22T05:04:59;30.40;;;8.63;;
64094;SDS011;50353;51.420;5.682;2023-11-22T05:07:24;28.77;;;9.10;;
64094;SDS011;50353;51.420;5.682;2023-11-22T05:09:50;57.08;;;8.93;;
64094;SDS011;50353;51.420;5.682;2023-11-22T05:12:15;31.50;;;10.03;;
64094;SDS011;50353;51.420;5.682;2023-11-22T05:14:40;60.47;;;14.40;;
64094;SDS011;50353;51.420;5.682;2023-11-22T05:17:08;22.20;;;8.85;;
64094;SDS011;50353;51.420;5.682;2023-11-22T05:19:33;39.57;;;9.53;;
64094;SDS011;50353;51.420;5.682;2023-11-22T05:21:59;23.17;;;8.57;;
64094;SDS011;50353;51.420;5.682;2023-11-22T05:24:24;44.10;;;9.77;;
64094;SDS011;50353;51.420;5.682;2023-11-22T05:26:49;21.92;;;9.77;;
64094;SDS011;50353;51.420;5.682;2023-11-22T05:29:14;20.77;;;9.53;;
64094;SDS011;50353;51.420;5.682;2023-11-22T05:31:40;40.33;;;9.97;;
64094;SDS011;50353;51.420;5.682;2023-11-22T05:34:05;36.70;;;10.65;;
64094;SDS011;50353;51.420;5.682;2023-11-22T05:36:31;29.77;;;10.63;;
64094;SDS011;50353;51.420;5.682;2023-11-22T05:38:56;29.53;;;10.10;;
64094;SDS011;50353;51.420;5.682;2023-11-22T05:41:27;30.33;;;10.35;;
64094;SDS011;50353;51.420;5.682;2023-11-22T05:43:52;22.63;;;9.20;;
64094;SDS011;50353;51.420;5.682;2023-11-22T05:46:21;31.60;;;8.82;;
64094;SDS011;50353;51.420;5.682;2023-11-22T05:48:49;23.00;;;9.25;;
64094;SDS011;50353;51.420;5.682;2023-11-22T05:51:16;17.45;;;8.85;;
64094;SDS011;50353;51.420;5.682;2023-11-22T05:53:41;18.70;;;8.13;;
64094;SDS011;50353;51.420;5.682;2023-11-22T05:56:06;32.17;;;10.13;;
64094;SDS011;50353;51.420;5.682;2023-11-22T05:58:33;29.90;;;9.43;;
64094;SDS011;50353;51.420;5.682;2023-11-22T06:00:59;49.30;;;11.25;;
64094;SDS011;50353;51.420;5.682;2023-11-22T06:03:25;18.67;;;9.45;;
64094;SDS011;50353;51.420;5.682;2023-11-22T06:05:50;18.17;;;9.57;;
64094;SDS011;50353;51.420;5.682;2023-11-22T06:08:15;23.83;;;8.63;;
64094;SDS011;50353;51.420;5.682;2023-11-22T06:10:41;19.23;;;9.00;;
64094;SDS011;50353;51.420;5.682;2023-11-22T06:13:06;19.85;;;9.98;;
64094;SDS011;50353;51.420;5.682;2023-11-22T06:15:31;21.27;;;9.80;;
64094;SDS011;50353;51.420;5.682;2023-11-22T06:17:57;21.20;;;9.60;;
64094;SDS011;50353;51.420;5.682;2023-11-22T06:20:23;23.50;;;9.73;;
64094;SDS011;50353;51.420;5.682;2023-11-22T06:22:51;20.25;;;8.60;;
64094;SDS011;50353;51.420;5.682;2023-11-22T06:25:16;21.07;;;10.03;;
64094;SDS011;50353;51.420;5.682;2023-11-22T06:27:42;21.08;;;11.60;;
64094;SDS011;50353;51.420;5.682;2023-11-22T06:30:07;20.83;;;9.60;;
64094;SDS011;50353;51.420;5.682;2023-11-22T06:32:34;22.50;;;9.63;;
64094;SDS011;50353;51.420;5.682;2023-11-22T06:34:59;21.90;;;10.80;;
64094;SDS011;50353;51.420;5.682;2023-11-22T06:37:25;19.38;;;10.00;;
64094;SDS011;50353;51.420;5.682;2023-11-22T06:39:51;22.20;;;10.68;;
64094;SDS011;50353;51.420;5.682;2023-11-22T06:42:16;21.92;;;10.60;;
64094;SDS011;50353;51.420;5.682;2023-11-22T06:44:42;24.67;;;11.13;;
64094;SDS011;50353;51.420;5.682;2023-11-22T06:47:07;21.98;;;10.32;;
64094;SDS011;50353;51.420;5.682;2023-11-22T06:49:33;22.50;;;11.10;;
64094;SDS011;50353;51.420;5.682;2023-11-22T06:51:59;23.45;;;9.90;;
64094;SDS011;50353;51.420;5.682;2023-11-22T06:54:24;22.13;;;10.40;;
64094;SDS011;50353;51.420;5.682;2023-11-22T06:56:49;21.17;;;10.65;;
64094;SDS011;50353;51.420;5.682;2023-11-22T06:59:16;24.45;;;11.95;;
64094;SDS011;50353;51.420;5.682;2023-11-22T07:01:41;20.65;;;10.00;;
64094;SDS011;50353;51.420;5.682;2023-11-22T07:04:07;26.25;;;11.02;;
64094;SDS011;50353;51.420;5.682;2023-11-22T07:06:32;22.55;;;10.93;;
64094;SDS011;50353;51.420;5.682;2023-11-22T07:08:57;24.02;;;11.02;;
64094;SDS011;50353;51.420;5.682;2023-11-22T07:11:24;23.63;;;10.85;;
64094;SDS011;50353;51.420;5.682;2023-11-22T07:13:50;23.60;;;10.88;;
64094;SDS011;50353;51.420;5.682;2023-11-22T07:16:16;24.27;;;10.07;;
64094;SDS011;50353;51.420;5.682;2023-11-22T07:18:43;27.52;;;11.32;;
64094;SDS011;50353;51.420;5.682;2023-11-22T07:21:09;30.95;;;13.35;;
64094;SDS011;50353;51.420;5.682;2023-11-22T07:23:34;33.80;;;14.88;;
64094;SDS011;50353;51.420;5.682;2023-11-22T07:26:00;27.40;;;11.75;;
64094;SDS011;50353;51.420;5.682;2023-11-22T07:28:25;26.10;;;11.77;;
64094;SDS011;50353;51.420;5.682;2023-11-22T07:30:51;29.27;;;12.07;;
64094;SDS011;50353;51.420;5.682;2023-11-22T07:33:17;27.38;;;13.02;;
64094;SDS011;50353;51.420;5.682;2023-11-22T07:35:42;29.42;;;12.90;;
64094;SDS011;50353;51.420;5.682;2023-11-22T07:38:08;33.80;;;13.43;;
64094;SDS011;50353;51.420;5.682;2023-11-22T07:40:33;32.83;;;13.15;;
64094;SDS011;50353;51.420;5.682;2023-11-22T07:43:00;30.77;;;13.95;;
64094;SDS011;50353;51.420;5.682;2023-11-22T07:45:27;28.55;;;13.18;;
64094;SDS011;50353;51.420;5.682;2023-11-22T07:47:53;35.40;;;14.10;;
64094;SDS011;50353;51.420;5.682;2023-11-22T07:50:18;31.80;;;13.65;;
64094;SDS011;50353;51.420;5.682;2023-11-22T07:52:45;37.55;;;14.60;;
64094;SDS011;50353;51.420;5.682;2023-11-22T07:55:10;37.92;;;14.52;;
64094;SDS011;50353;51.420;5.682;2023-11-22T07:57:36;39.50;;;16.08;;
64094;SDS011;50353;51.420;5.682;2023-11-22T08:00:03;41.72;;;15.68;;
64094;SDS011;50353;51.420;5.682;2023-11-22T08:02:32;38.47;;;15.70;;
64094;SDS011;50353;51.420;5.682;2023-11-22T08:04:58;35.70;;;15.23;;
64094;SDS011;50353;51.420;5.682;2023-11-22T08:07:26;37.28;;;15.57;;
64094;SDS011;50353;51.420;5.682;2023-11-22T08:09:52;41.13;;;16.58;;
64094;SDS011;50353;51.420;5.682;2023-11-22T08:12:18;35.30;;;17.38;;
64094;SDS011;50353;51.420;5.682;2023-11-22T08:14:44;37.72;;;15.35;;
64094;SDS011;50353;51.420;5.682;2023-11-22T08:17:09;44.03;;;15.80;;
64094;SDS011;50353;51.420;5.682;2023-11-22T08:19:37;36.22;;;15.50;;
64094;SDS011;50353;51.420;5.682;2023-11-22T08:24:29;35.83;;;14.73;;
64094;SDS011;50353;51.420;5.682;2023-11-22T08:26:55;41.50;;;17.35;;
64094;SDS011;50353;51.420;5.682;2023-11-22T08:29:20;34.57;;;14.70;;
64094;SDS011;50353;51.420;5.682;2023-11-22T08:31:45;38.27;;;15.00;;
64094;SDS011;50353;51.420;5.682;2023-11-22T08:34:10;37.95;;;15.02;;
64094;SDS011;50353;51.420;5.682;2023-11-22T08:36:36;33.95;;;14.57;;
64094;SDS011;50353;51.420;5.682;2023-11-22T08:39:02;36.35;;;14.73;;
64094;SDS011;50353;51.420;5.682;2023-11-22T08:41:28;37.00;;;14.73;;
64094;SDS011;50353;51.420;5.682;2023-11-22T08:43:55;40.78;;;16.45;;
64094;SDS011;50353;51.420;5.682;2023-11-22T08:46:20;34.38;;;13.95;;
64094;SDS011;50353;51.420;5.682;2023-11-22T08:48:46;33.45;;;13.82;;
64094;SDS011;50353;51.420;5.682;2023-11-22T08:51:12;36.55;;;15.20;;
64094;SDS011;50353;51.420;5.682;2023-11-22T08:53:37;36.35;;;15.50;;
64094;SDS011;50353;51.420;5.682;2023-11-22T08:56:03;34.58;;;14.57;;
64094;SDS011;50353;51.420;5.682;2023-11-22T08:58:30;31.73;;;13.85;;
64094;SDS011;50353;51.420;5.682;2023-11-22T09:00:56;34.83;;;14.45;;
64094;SDS011;50353;51.420;5.682;2023-11-22T09:03:22;34.67;;;13.93;;
64094;SDS011;50353;51.420;5.682;2023-11-22T09:05:48;36.60;;;16.42;;
64094;SDS011;50353;51.420;5.682;2023-11-22T09:08:14;33.50;;;14.50;;
64094;SDS011;50353;51.420;5.682;2023-11-22T09:10:40;31.42;;;12.82;;
64094;SDS011;50353;51.420;5.682;2023-11-22T09:13:09;34.72;;;13.82;;
64094;SDS011;50353;51.420;5.682;2023-11-22T09:15:35;32.30;;;13.18;;
64094;SDS011;50353;51.420;5.682;2023-11-22T09:18:03;38.50;;;15.95;;
64094;SDS011;50353;51.420;5.682;2023-11-22T09:20:30;35.35;;;15.57;;
64094;SDS011;50353;51.420;5.682;2023-11-22T09:22:55;35.15;;;16.10;;
64094;SDS011;50353;51.420;5.682;2023-11-22T09:25:22;34.60;;;15.30;;
64094;SDS011;50353;51.420;5.682;2023-11-22T09:27:53;38.15;;;14.43;;
64094;SDS011;50353;51.420;5.682;2023-11-22T09:33:06;34.47;;;16.25;;
64094;SDS011;50353;51.420;5.682;2023-11-22T09:35:34;37.88;;;14.98;;
64094;SDS011;50353;51.420;5.682;2023-11-22T09:38:00;38.65;;;15.75;;
64094;SDS011;50353;51.420;5.682;2023-11-22T09:40:27;36.65;;;14.45;;
64094;SDS011;50353;51.420;5.682;2023-11-22T09:42:54;38.20;;;16.50;;
64094;SDS011;50353;51.420;5.682;2023-11-22T09:45:23;34.35;;;14.52;;
64094;SDS011;50353;51.420;5.682;2023-11-22T09:47:50;34.70;;;14.88;;
64094;SDS011;50353;51.420;5.682;2023-11-22T09:50:19;37.38;;;15.15;;
64094;SDS011;50353;51.420;5.682;2023-11-22T09:52:52;37.47;;;15.48;;
64094;SDS011;50353;51.420;5.682;2023-11-22T09:55:25;45.33;;;16.38;;
64094;SDS011;50353;51.420;5.682;2023-11-22T09:57:53;36.08;;;15.77;;
64094;SDS011;50353;51.420;5.682;2023-11-22T10:00:20;41.10;;;16.40;;
64094;SDS011;50353;51.420;5.682;2023-11-22T10:02:49;39.50;;;16.35;;
64094;SDS011;50353;51.420;5.682;2023-11-22T10:05:15;35.20;;;15.48;;
64094;SDS011;50353;51.420;5.682;2023-11-22T10:07:40;31.83;;;14.23;;
64094;SDS011;50353;51.420;5.682;2023-11-22T10:10:06;29.95;;;13.27;;
64094;SDS011;50353;51.420;5.682;2023-11-22T10:12:32;30.73;;;13.27;;
64094;SDS011;50353;51.420;5.682;2023-11-22T10:15:10;33.13;;;14.65;;
64094;SDS011;50353;51.420;5.682;2023-11-22T10:17:37;35.65;;;15.90;;
64094;SDS011;50353;51.420;5.682;2023-11-22T10:20:02;35.88;;;14.55;;
64094;SDS011;50353;51.420;5.682;2023-11-22T10:22:28;29.85;;;12.50;;
64094;SDS011;50353;51.420;5.682;2023-11-22T10:24:53;33.80;;;14.60;;
64094;SDS011;50353;51.420;5.682;2023-11-22T10:27:26;32.00;;;13.98;;
64094;SDS011;50353;51.420;5.682;2023-11-22T10:29:51;34.83;;;14.32;;
64094;SDS011;50353;51.420;5.682;2023-11-22T10:32:16;32.85;;;13.85;;
64094;SDS011;50353;51.420;5.682;2023-11-22T10:34:42;33.70;;;15.38;;
64094;SDS011;50353;51.420;5.682;2023-11-22T10:37:07;48.83;;;21.07;;
64094;SDS011;50353;51.420;5.682;2023-11-22T10:39:34;35.45;;;16.40;;
64094;SDS011;50353;51.420;5.682;2023-11-22T10:42:00;39.50;;;16.88;;
64094;SDS011;50353;51.420;5.682;2023-11-22T10:44:30;38.05;;;16.17;;
64094;SDS011;50353;51.420;5.682;2023-11-22T10:46:57;41.30;;;16.30;;
64094;SDS011;50353;51.420;5.682;2023-11-22T10:49:25;38.65;;;15.88;;
64094;SDS011;50353;51.420;5.682;2023-11-22T10:51:51;37.83;;;16.27;;
64094;SDS011;50353;51.420;5.682;2023-11-22T10:54:18;44.42;;;17.55;;
64094;SDS011;50353;51.420;5.682;2023-11-22T10:56:46;37.33;;;15.98;;
64094;SDS011;50353;51.420;5.682;2023-11-22T10:59:16;41.00;;;18.38;;
64094;SDS011;50353;51.420;5.682;2023-11-22T11:01:45;36.33;;;14.93;;
64094;SDS011;50353;51.420;5.682;2023-11-22T11:04:23;43.70;;;18.42;;
64094;SDS011;50353;51.420;5.682;2023-11-22T11:06:53;39.67;;;16.67;;
64094;SDS011;50353;51.420;5.682;2023-11-22T11:09:22;41.45;;;18.23;;
64094;SDS011;50353;51.420;5.682;2023-11-22T11:11:54;34.95;;;15.95;;
64094;SDS011;50353;51.420;5.682;2023-11-22T11:19:15;31.98;;;14.95;;
64094;SDS011;50353;51.420;5.682;2023-11-22T11:21:42;34.00;;;14.77;;
64094;SDS011;50353;51.420;5.682;2023-11-22T11:24:08;32.47;;;14.00;;
64094;SDS011;50353;51.420;5.682;2023-11-22T11:26:33;34.30;;;13.13;;
64094;SDS011;50353;51.420;5.682;2023-11-22T11:29:01;37.60;;;14.77;;
64094;SDS011;50353;51.420;5.682;2023-11-22T11:31:32;38.85;;;15.27;;
64094;SDS011;50353;51.420;5.682;2023-11-22T11:34:00;40.38;;;16.73;;
64094;SDS011;50353;51.420;5.682;2023-11-22T11:36:27;41.17;;;17.52;;
64094;SDS011;50353;51.420;5.682;2023-11-22T11:38:54;40.80;;;17.08;;
64094;SDS011;50353;51.420;5.682;2023-11-22T11:41:53;34.80;;;14.30;;
64094;SDS011;50353;51.420;5.682;2023-11-22T11:44:12;34.63;;;15.00;;
64094;SDS011;50353;51.420;5.682;2023-11-22T11:46:37;34.50;;;13.85;;
64094;SDS011;50353;51.420;5.682;2023-11-22T11:49:06;39.20;;;15.18;;
64094;SDS011;50353;51.420;5.682;2023-11-22T11:51:35;38.83;;;16.38;;
64094;SDS011;50353;51.420;5.682;2023-11-22T11:54:02;37.63;;;16.60;;
64094;SDS011;50353;51.420;5.682;2023-11-22T11:56:28;39.10;;;15.38;;
64094;SDS011;50353;51.420;5.682;2023-11-22T11:58:55;37.22;;;16.08;;
64094;SDS011;50353;51.420;5.682;2023-11-22T12:01:24;36.85;;;14.95;;
64094;SDS011;50353;51.420;5.682;2023-11-22T12:03:49;42.33;;;17.00;;
64094;SDS011;50353;51.420;5.682;2023-11-22T12:06:15;34.08;;;14.57;;
64094;SDS011;50353;51.420;5.682;2023-11-22T12:08:42;33.08;;;13.98;;
64094;SDS011;50353;51.420;5.682;2023-11-22T12:11:07;37.65;;;14.98;;
64094;SDS011;50353;51.420;5.682;2023-11-22T12:13:34;49.70;;;21.13;;
64094;SDS011;50353;51.420;5.682;2023-11-22T12:16:03;31.83;;;13.88;;
64094;SDS011;50353;51.420;5.682;2023-11-22T12:21:03;31.15;;;12.93;;
64094;SDS011;50353;51.420;5.682;2023-11-22T12:23:30;30.98;;;12.88;;
64094;SDS011;50353;51.420;5.682;2023-11-22T12:25:59;33.05;;;13.68;;
64094;SDS011;50353;51.420;5.682;2023-11-22T12:28:27;31.70;;;14.63;;
64094;SDS011;50353;51.420;5.682;2023-11-22T12:30:53;29.58;;;13.45;;
64094;SDS011;50353;51.420;5.682;2023-11-22T12:33:18;33.60;;;14.18;;
64094;SDS011;50353;51.420;5.682;2023-11-22T12:35:45;30.33;;;13.45;;
64094;SDS011;50353;51.420;5.682;2023-11-22T12:38:11;28.77;;;13.23;;
64094;SDS011;50353;51.420;5.682;2023-11-22T12:40:37;32.47;;;14.43;;
64094;SDS011;50353;51.420;5.682;2023-11-22T12:43:02;32.33;;;14.63;;
64094;SDS011;50353;51.420;5.682;2023-11-22T12:45:32;31.60;;;13.70;;
64094;SDS011;50353;51.420;5.682;2023-11-22T12:48:09;33.50;;;15.10;;
64094;SDS011;50353;51.420;5.682;2023-11-22T12:50:45;33.97;;;15.38;;
64094;SDS011;50353;51.420;5.682;2023-11-22T12:53:12;29.27;;;13.63;;
64094;SDS011;50353;51.420;5.682;2023-11-22T12:55:41;30.80;;;13.35;;
64094;SDS011;50353;51.420;5.682;2023-11-22T12:58:11;34.45;;;14.27;;
64094;SDS011;50353;51.420;5.682;2023-11-22T13:00:38;29.85;;;13.50;;
64094;SDS011;50353;51.420;5.682;2023-11-22T13:03:04;29.48;;;14.73;;
64094;SDS011;50353;51.420;5.682;2023-11-22T13:05:35;30.67;;;12.65;;
64094;SDS011;50353;51.420;5.682;2023-11-22T13:08:01;30.73;;;11.73;;
64094;SDS011;50353;51.420;5.682;2023-11-22T13:10:28;24.95;;;9.80;;
64094;SDS011;50353;51.420;5.682;2023-11-22T13:12:54;26.00;;;11.10;;
64094;SDS011;50353;51.420;5.682;2023-11-22T13:15:20;26.70;;;10.30;;
64094;SDS011;50353;51.420;5.682;2023-11-22T13:17:48;26.88;;;11.75;;
64094;SDS011;50353;51.420;5.682;2023-11-22T13:20:14;30.85;;;11.80;;
64094;SDS011;50353;51.420;5.682;2023-11-22T13:22:43;26.88;;;11.50;;
64094;SDS011;50353;51.420;5.682;2023-11-22T13:25:11;27.60;;;12.05;;
64094;SDS011;50353;51.420;5.682;2023-11-22T13:27:42;28.73;;;11.75;;
64094;SDS011;50353;51.420;5.682;2023-11-22T13:30:07;27.35;;;12.60;;
64094;SDS011;50353;51.420;5.682;2023-11-22T13:32:33;32.13;;;13.50;;
64094;SDS011;50353;51.420;5.682;2023-11-22T13:34:59;30.98;;;12.35;;
64094;SDS011;50353;51.420;5.682;2023-11-22T13:37:24;28.60;;;11.15;;
64094;SDS011;50353;51.420;5.682;2023-11-22T13:39:50;26.13;;;11.35;;
64094;SDS011;50353;51.420;5.682;2023-11-22T13:42:15;32.90;;;12.25;;
64094;SDS011;50353;51.420;5.682;2023-11-22T13:44:41;26.70;;;11.70;;
64094;SDS011;50353;51.420;5.682;2023-11-22T13:47:06;30.07;;;13.10;;
64094;SDS011;50353;51.420;5.682;2023-11-22T13:49:33;28.65;;;11.60;;
64094;SDS011;50353;51.420;5.682;2023-11-22T13:51:58;30.33;;;11.98;;
64094;SDS011;50353;51.420;5.682;2023-11-22T13:54:24;23.80;;;10.07;;
64094;SDS011;50353;51.420;5.682;2023-11-22T13:56:49;25.25;;;10.02;;
64094;SDS011;50353;51.420;5.682;2023-11-22T13:59:14;25.38;;;10.60;;
64094;SDS011;50353;51.420;5.682;2023-11-22T14:01:40;26.53;;;11.07;;
64094;SDS011;50353;51.420;5.682;2023-11-22T14:04:05;24.52;;;9.48;;
64094;SDS011;50353;51.420;5.682;2023-11-22T14:06:31;22.92;;;10.18;;
64094;SDS011;50353;51.420;5.682;2023-11-22T14:08:56;25.98;;;10.18;;
64094;SDS011;50353;51.420;5.682;2023-11-22T14:11:21;24.17;;;9.73;;
64094;SDS011;50353;51.420;5.682;2023-11-22T14:13:47;26.25;;;10.48;;
64094;SDS011;50353;51.420;5.682;2023-11-22T14:16:12;22.90;;;9.57;;
64094;SDS011;50353;51.420;5.682;2023-11-22T14:18:39;23.27;;;9.90;;
64094;SDS011;50353;51.420;5.682;2023-11-22T14:21:04;21.97;;;9.57;;
64094;SDS011;50353;51.420;5.682;2023-11-22T14:23:29;42.10;;;17.40;;
64094;SDS011;50353;51.420;5.682;2023-11-22T14:25:55;19.83;;;8.38;;
64094;SDS011;50353;51.420;5.682;2023-11-22T14:28:21;25.80;;;10.25;;
64094;SDS011;50353;51.420;5.682;2023-11-22T14:30:47;21.13;;;8.93;;
64094;SDS011;50353;51.420;5.682;2023-11-22T14:33:16;22.13;;;8.73;;
64094;SDS011;50353;51.420;5.682;2023-11-22T14:35:41;18.83;;;8.43;;